Time;durP1;ratioP1;P1;durP2;ratioP2;P2;SDS_P1;SDS_P2;PMS_P1;PMS_P2;Temp;Humidity;BMP_temperature;BMP_pressure;BME280_temperature;BME280_humidity;BME280_pressure;Samples;Min_cycle;Max_cycle;Signal;HPM_P1;HPM_P2
2023/07/10 00:00:23;;;;;;;3.63;3.23;;;23.60;98.90;;;;;;5049362;28;20202;-54
2023/07/10 00:02:50;;;;;;;3.90;3.47;;;23.60;98.40;;;;;;5050056;28;20202;-54
2023/07/10 00:05:19;;;;;;;4.93;4.40;;;23.60;98.10;;;;;;5050348;28;20201;-54
2023/07/10 00:07:46;;;;;;;4.63;3.93;;;23.60;98.10;;;;;;5049518;28;20287;-54
2023/07/10 00:10:16;;;;;;;6.93;3.53;;;23.50;98.40;;;;;;5050080;28;20243;-53
2023/07/10 00:12:44;;;;;;;4.33;3.27;;;23.50;98.60;;;;;;5047034;28;20202;-54
2023/07/10 00:15:19;;;;;;;3.33;3.03;;;23.60;97.80;;;;;;5050000;28;20561;-53
2023/07/10 00:17:48;;;;;;;3.97;3.53;;;23.60;97.40;;;;;;5049927;28;20229;-54
2023/07/10 00:20:17;;;;;;;3.60;3.40;;;23.60;97.30;;;;;;5049289;28;20297;-53
2023/07/10 00:22:44;;;;;;;4.37;4.00;;;23.70;97.20;;;;;;5049814;28;20209;-54
2023/07/10 00:25:15;;;;;;;6.50;3.83;;;23.70;97.30;;;;;;5048101;28;20202;-54
2023/07/10 00:27:43;;;;;;;4.23;4.03;;;23.70;97.20;;;;;;5050012;28;20325;-53
2023/07/10 00:30:19;;;;;;;3.57;2.80;;;23.80;96.90;;;;;;5050067;28;20641;-54
2023/07/10 00:32:52;;;;;;;4.10;3.73;;;23.70;97.10;;;;;;5049744;28;20202;-55
2023/07/10 00:35:19;;;;;;;3.33;3.03;;;23.70;97.10;;;;;;5044959;28;20198;-54
2023/07/10 00:37:49;;;;;;;3.67;3.37;;;23.60;97.00;;;;;;5048810;28;20256;-54
2023/07/10 00:40:23;;;;;;;5.33;3.60;;;23.60;97.40;;;;;;5048613;28;20198;-54
2023/07/10 00:42:56;;;;;;;3.47;3.20;;;23.50;97.80;;;;;;5049335;28;20256;-54
2023/07/10 00:45:23;;;;;;;3.87;3.63;;;23.50;97.80;;;;;;5049701;28;20217;-53
2023/07/10 00:48:13;;;;;;;3.50;3.17;;;23.40;98.00;;;;;;5047825;28;20222;-53
2023/07/10 00:50:45;;;;;;;3.70;3.40;;;23.30;97.90;;;;;;5047692;28;20949;-53
2023/07/10 00:53:28;;;;;;;5.43;4.10;;;23.30;98.40;;;;;;5041683;28;20273;-54
2023/07/10 00:55:59;;;;;;;6.30;3.60;;;23.30;98.30;;;;;;5049988;28;20205;-54
2023/07/10 00:58:33;;;;;;;3.77;3.47;;;23.20;98.20;;;;;;5050694;28;20258;-53
2023/07/10 01:01:06;;;;;;;3.90;3.60;;;23.20;98.20;;;;;;5051872;28;20286;-54
2023/07/10 01:03:36;;;;;;;3.33;2.80;;;23.20;98.20;;;;;;5046100;28;20629;-53
2023/07/10 01:06:08;;;;;;;5.13;4.73;;;23.30;98.00;;;;;;5052891;28;20259;-53
2023/07/10 01:08:36;;;;;;;3.67;3.37;;;23.30;97.90;;;;;;5053325;28;20666;-54
2023/07/10 01:11:03;;;;;;;4.33;3.73;;;23.30;97.30;;;;;;5052692;28;20225;-55
2023/07/10 01:13:30;;;;;;;4.23;3.87;;;23.30;97.30;;;;;;5052380;28;20202;-54
2023/07/10 01:15:57;;;;;;;4.07;3.30;;;23.30;97.40;;;;;;5050424;28;20213;-53
2023/07/10 01:18:25;;;;;;;3.40;3.20;;;23.30;98.10;;;;;;5053010;28;20198;-54
2023/07/10 01:21:02;;;;;;;3.77;3.47;;;23.20;97.60;;;;;;5053171;28;20253;-54
2023/07/10 01:23:29;;;;;;;4.13;3.43;;;23.20;97.60;;;;;;5050706;28;20209;-53
2023/07/10 01:25:59;;;;;;;4.13;3.20;;;23.20;97.70;;;;;;5052847;28;20671;-54
2023/07/10 01:28:27;;;;;;;6.13;4.70;;;23.10;97.60;;;;;;5051150;28;20521;-54
2023/07/10 01:30:56;;;;;;;3.10;2.90;;;23.10;97.70;;;;;;5052571;28;20217;-54
2023/07/10 01:33:26;;;;;;;4.37;3.97;;;23.10;97.60;;;;;;5052454;28;20206;-54
2023/07/10 01:35:57;;;;;;;3.87;3.33;;;23.10;97.80;;;;;;5052801;28;20201;-54
2023/07/10 01:38:31;;;;;;;3.97;3.60;;;23.00;97.80;;;;;;5052901;28;20210;-54
2023/07/10 01:41:02;;;;;;;3.30;3.03;;;23.00;98.20;;;;;;5048401;28;20230;-54
2023/07/10 01:43:29;;;;;;;3.90;3.10;;;22.90;98.60;;;;;;5045944;28;20746;-54
2023/07/10 01:45:56;;;;;;;5.90;3.47;;;22.90;99.10;;;;;;5051012;28;20733;-53
2023/07/10 01:48:28;;;;;;;4.33;4.03;;;22.80;99.60;;;;;;5052450;28;20594;-53
2023/07/10 01:50:55;;;;;;;4.27;3.83;;;22.80;99.60;;;;;;5052461;28;20305;-54
2023/07/10 01:53:22;;;;;;;6.13;3.60;;;22.90;99.60;;;;;;5051327;28;20206;-54
2023/07/10 01:55:51;;;;;;;4.13;3.93;;;22.80;99.70;;;;;;5052460;28;20304;-54
2023/07/10 01:58:18;;;;;;;3.97;3.70;;;22.70;99.90;;;;;;5052246;28;20201;-53
2023/07/10 02:00:45;;;;;;;3.80;3.60;;;22.50;99.90;;;;;;5045370;28;20692;-53
2023/07/10 02:03:13;;;;;;;3.70;3.50;;;22.40;99.90;;;;;;5050152;28;20202;-53
2023/07/10 02:05:39;;;;;;;4.47;4.07;;;22.30;99.90;;;;;;5050666;28;20206;-53
2023/07/10 02:08:07;;;;;;;3.70;3.40;;;22.30;99.90;;;;;;5051947;28;20225;-54
2023/07/10 02:10:33;;;;;;;4.07;3.67;;;22.30;99.90;;;;;;5051977;28;20297;-54
2023/07/10 02:13:02;;;;;;;3.57;3.27;;;22.20;99.90;;;;;;5051212;28;20540;-53
2023/07/10 02:15:29;;;;;;;3.73;3.50;;;22.10;99.90;;;;;;5050529;28;20271;-53
2023/07/10 02:17:57;;;;;;;3.70;3.40;;;22.10;99.90;;;;;;5050955;28;20253;-54
2023/07/10 02:20:25;;;;;;;4.07;3.87;;;22.10;99.90;;;;;;5050549;28;20659;-55
2023/07/10 02:22:52;;;;;;;4.03;3.70;;;22.10;99.90;;;;;;5051770;28;20297;-53
2023/07/10 02:25:19;;;;;;;4.43;4.13;;;22.10;99.90;;;;;;5051879;28;20210;-53
2023/07/10 02:27:46;;;;;;;4.83;4.43;;;22.10;99.90;;;;;;5049404;28;20594;-53
2023/07/10 02:30:15;;;;;;;4.73;4.50;;;22.00;99.90;;;;;;5047143;28;20202;-54
2023/07/10 02:32:42;;;;;;;4.40;3.97;;;22.00;99.90;;;;;;5047052;28;20201;-53
2023/07/10 02:35:09;;;;;;;4.23;3.90;;;22.00;99.90;;;;;;5048266;28;20201;-53
2023/07/10 02:37:39;;;;;;;4.00;3.70;;;22.00;99.90;;;;;;5051670;28;20202;-53
2023/07/10 02:40:08;;;;;;;4.77;4.47;;;21.90;99.90;;;;;;5049570;28;20202;-53
2023/07/10 02:42:35;;;;;;;4.07;3.87;;;21.90;99.90;;;;;;5050889;28;20644;-53
2023/07/10 02:45:02;;;;;;;4.70;4.23;;;21.90;99.90;;;;;;5048783;28;20305;-53
2023/07/10 02:47:31;;;;;;;4.40;4.00;;;21.90;99.90;;;;;;5046461;28;20217;-53
2023/07/10 02:49:58;;;;;;;6.10;3.63;;;21.90;99.90;;;;;;5048535;28;20797;-53
2023/07/10 02:52:25;;;;;;;5.67;3.90;;;21.90;99.90;;;;;;5050614;28;20218;-53
2023/07/10 02:54:52;;;;;;;3.97;3.77;;;21.90;99.90;;;;;;5051382;28;20284;-53
2023/07/10 02:57:18;;;;;;;4.27;3.97;;;21.90;99.90;;;;;;5051438;28;20255;-55
2023/07/10 02:59:45;;;;;;;3.77;3.57;;;21.90;99.90;;;;;;5051104;28;20202;-55
2023/07/10 03:02:12;;;;;;;6.47;3.70;;;21.90;99.90;;;;;;5049162;28;20222;-53
2023/07/10 03:04:41;;;;;;;3.60;3.40;;;21.90;99.90;;;;;;5047155;28;20275;-54
2023/07/10 03:07:08;;;;;;;3.27;3.07;;;21.90;99.90;;;;;;5045800;28;20218;-53
2023/07/10 03:09:35;;;;;;;4.67;4.13;;;21.90;99.90;;;;;;5049652;28;20277;-56
2023/07/10 03:12:02;;;;;;;4.93;3.57;;;21.90;99.90;;;;;;5048065;28;20226;-53
2023/07/10 03:14:29;;;;;;;4.27;3.80;;;21.90;99.90;;;;;;5049012;28;20232;-54
2023/07/10 03:16:56;;;;;;;4.10;3.90;;;21.90;99.90;;;;;;5045599;28;20202;-53
2023/07/10 03:19:23;;;;;;;4.10;3.73;;;21.90;99.90;;;;;;5049690;28;20217;-54
2023/07/10 03:21:51;;;;;;;3.07;2.83;;;21.90;99.90;;;;;;5043377;28;20218;-55
2023/07/10 03:24:18;;;;;;;3.73;3.40;;;21.90;99.90;;;;;;5050258;28;20194;-54
2023/07/10 03:26:47;;;;;;;3.90;3.70;;;21.90;99.90;;;;;;5048788;28;20278;-53
2023/07/10 03:29:15;;;;;;;3.87;3.57;;;21.90;99.90;;;;;;5047166;28;20204;-53
2023/07/10 03:31:42;;;;;;;4.23;3.27;;;21.80;99.90;;;;;;5049330;28;20225;-53
2023/07/10 03:34:12;;;;;;;4.90;4.37;;;21.80;99.90;;;;;;5064314;28;20259;-54
2023/07/10 03:36:40;;;;;;;4.63;3.87;;;21.90;99.90;;;;;;5050244;28;20197;-54
2023/07/10 03:39:09;;;;;;;3.13;2.80;;;21.80;99.90;;;;;;5049228;28;20670;-53
2023/07/10 03:41:36;;;;;;;4.03;3.73;;;21.90;99.90;;;;;;5047094;28;20723;-53
2023/07/10 03:44:04;;;;;;;6.20;5.00;;;21.80;99.90;;;;;;5046966;28;20205;-53
2023/07/10 03:46:31;;;;;;;3.50;3.30;;;21.80;99.90;;;;;;5049258;28;20267;-54
2023/07/10 03:48:58;;;;;;;5.57;4.03;;;21.80;99.90;;;;;;5049490;28;20306;-53
2023/07/10 03:51:25;;;;;;;5.17;3.90;;;21.80;99.90;;;;;;5042390;28;20679;-53
2023/07/10 03:53:52;;;;;;;4.37;3.80;;;21.80;99.90;;;;;;5046328;28;20255;-54
2023/07/10 03:56:20;;;;;;;3.57;3.33;;;21.80;99.90;;;;;;5049266;28;20198;-53
2023/07/10 03:58:48;;;;;;;3.93;3.47;;;21.80;99.90;;;;;;5048345;28;20256;-53
2023/07/10 04:01:16;;;;;;;3.67;3.37;;;21.80;99.90;;;;;;5046687;28;20355;-53
2023/07/10 04:03:44;;;;;;;4.80;4.13;;;21.90;99.90;;;;;;5038215;28;20253;-53
2023/07/10 04:06:14;;;;;;;4.73;4.17;;;21.90;99.90;;;;;;5037718;28;20198;-53
2023/07/10 04:08:43;;;;;;;5.53;3.67;;;21.90;99.90;;;;;;5033340;28;20222;-53
2023/07/10 04:11:13;;;;;;;6.73;4.03;;;21.90;99.90;;;;;;5033518;28;20218;-53
2023/07/10 04:13:42;;;;;;;6.00;3.93;;;21.90;99.90;;;;;;5030563;28;20206;-53
2023/07/10 04:16:12;;;;;;;3.83;3.43;;;21.90;99.90;;;;;;5041011;28;20198;-55
2023/07/10 04:18:41;;;;;;;4.00;3.60;;;21.90;99.90;;;;;;5030506;28;20608;-53
2023/07/10 04:21:10;;;;;;;4.67;4.27;;;22.00;99.90;;;;;;5033347;28;20229;-53
2023/07/10 04:23:37;;;;;;;4.03;3.30;;;22.10;99.90;;;;;;5029842;28;20198;-54
2023/07/10 04:26:05;;;;;;;3.40;3.10;;;22.10;99.90;;;;;;5030729;28;20222;-54
2023/07/10 04:28:31;;;;;;;3.63;3.33;;;22.10;99.90;;;;;;5029991;28;20739;-53
2023/07/10 04:31:00;;;;;;;4.33;3.97;;;22.10;99.90;;;;;;5031775;28;20704;-54
2023/07/10 04:33:27;;;;;;;6.43;4.70;;;22.10;99.90;;;;;;5035036;28;20260;-53
2023/07/10 04:35:55;;;;;;;4.93;3.83;;;22.10;99.90;;;;;;5041240;28;20571;-53
2023/07/10 04:38:24;;;;;;;4.07;3.77;;;22.20;99.90;;;;;;5033878;28;20199;-55
2023/07/10 04:40:55;;;;;;;3.53;3.30;;;22.20;99.90;;;;;;5033537;28;20321;-54
2023/07/10 04:43:22;;;;;;;3.63;3.40;;;22.20;99.90;;;;;;5033282;28;20297;-54
2023/07/10 04:45:50;;;;;;;3.60;3.40;;;22.30;99.90;;;;;;5033701;28;20190;-53
2023/07/10 04:48:19;;;;;;;4.70;4.13;;;22.30;99.90;;;;;;5047294;28;20217;-54
2023/07/10 04:50:48;;;;;;;3.83;3.63;;;22.40;99.90;;;;;;5047326;28;20214;-54
2023/07/10 04:53:15;;;;;;;3.83;3.53;;;22.40;99.90;;;;;;5051533;28;20523;-54
2023/07/10 04:55:43;;;;;;;7.20;4.53;;;22.50;99.90;;;;;;5052331;28;20668;-53
2023/07/10 04:58:10;;;;;;;4.37;3.10;;;22.60;99.90;;;;;;5061331;28;20196;-53
2023/07/10 05:00:38;;;;;;;3.80;3.50;;;22.60;99.90;;;;;;5073209;28;20645;-53
2023/07/10 05:03:06;;;;;;;4.43;3.83;;;22.60;99.90;;;;;;5067380;28;20201;-54
2023/07/10 05:05:35;;;;;;;6.37;4.37;;;22.60;99.90;;;;;;5051077;28;20201;-53
2023/07/10 05:08:02;;;;;;;4.13;3.93;;;22.60;99.90;;;;;;5050985;28;20272;-53
2023/07/10 05:10:29;;;;;;;4.30;3.90;;;22.70;99.90;;;;;;5041112;28;20201;-54
2023/07/10 05:12:56;;;;;;;6.20;4.70;;;22.70;99.90;;;;;;5052518;28;20290;-54
2023/07/10 05:15:23;;;;;;;4.70;4.20;;;22.80;99.90;;;;;;5051516;28;20228;-54
2023/07/10 05:17:50;;;;;;;4.87;4.20;;;22.80;99.90;;;;;;5050252;28;20263;-54
2023/07/10 05:20:17;;;;;;;4.77;4.37;;;22.90;99.90;;;;;;5051342;28;20210;-53
2023/07/10 05:22:45;;;;;;;4.57;3.13;;;23.00;99.90;;;;;;5048136;28;20641;-53
2023/07/10 05:25:12;;;;;;;4.67;3.83;;;23.10;99.90;;;;;;5048291;28;20210;-53
2023/07/10 05:27:39;;;;;;;5.60;3.27;;;23.30;99.90;;;;;;5048887;28;20621;-53
2023/07/10 05:30:08;;;;;;;7.00;3.87;;;23.40;99.90;;;;;;5052573;28;20198;-54
2023/07/10 05:32:37;;;;;;;5.77;3.80;;;23.50;99.90;;;;;;5051198;28;20228;-53
2023/07/10 05:35:05;;;;;;;4.67;4.27;;;23.60;99.90;;;;;;5048841;28;20252;-54
2023/07/10 05:37:32;;;;;;;12.90;5.80;;;23.70;99.90;;;;;;5052120;28;20243;-54
2023/07/10 05:40:00;;;;;;;3.77;3.53;;;23.70;99.90;;;;;;5041088;28;20218;-54
2023/07/10 05:42:27;;;;;;;6.43;4.10;;;23.70;99.90;;;;;;5052080;28;20230;-53
2023/07/10 05:44:54;;;;;;;5.70;4.80;;;23.80;99.90;;;;;;5056418;28;20581;-54
2023/07/10 05:47:21;;;;;;;4.03;3.70;;;23.90;99.90;;;;;;5084573;22;20599;-54
2023/07/10 05:49:48;;;;;;;4.13;3.80;;;24.00;99.90;;;;;;4992405;28;20732;-51
2023/07/10 05:52:15;;;;;;;5.80;3.87;;;24.10;99.90;;;;;;4993659;28;20196;-51
2023/07/10 05:54:42;;;;;;;3.80;3.60;;;24.30;99.90;;;;;;4994410;28;20692;-51
2023/07/10 05:57:10;;;;;;;5.33;4.00;;;24.40;99.90;;;;;;4994097;28;20211;-51
2023/07/10 05:59:37;;;;;;;7.57;4.50;;;24.60;99.90;;;;;;4992366;28;20220;-51
2023/07/10 06:02:04;;;;;;;4.23;3.87;;;24.80;99.90;;;;;;4993861;28;20661;-51
2023/07/10 06:04:31;;;;;;;5.70;3.77;;;25.00;99.90;;;;;;4992119;28;20277;-51
2023/07/10 06:06:58;;;;;;;3.67;3.47;;;25.20;99.90;;;;;;4991387;28;20265;-51
2023/07/10 06:09:25;;;;;;;4.97;4.50;;;25.30;99.90;;;;;;4993825;28;20282;-51
2023/07/10 06:11:52;;;;;;;11.43;3.53;;;25.30;99.90;;;;;;4985696;28;20658;-51
2023/07/10 06:14:20;;;;;;;16.37;5.10;;;25.40;99.90;;;;;;4989615;28;20204;-51
2023/07/10 06:16:47;;;;;;;4.30;3.97;;;25.20;99.90;;;;;;4991955;28;20313;-51
2023/07/10 06:19:15;;;;;;;4.40;4.10;;;24.70;99.90;;;;;;4986959;28;20302;-51
2023/07/10 06:21:42;;;;;;;5.07;4.03;;;24.60;99.90;;;;;;4989393;28;20291;-51
2023/07/10 06:24:09;;;;;;;5.67;4.47;;;24.40;99.90;;;;;;4993568;28;20195;-51
2023/07/10 06:26:36;;;;;;;4.73;4.13;;;24.30;99.90;;;;;;4993016;28;20721;-51
2023/07/10 06:29:03;;;;;;;4.30;4.00;;;24.10;99.90;;;;;;4993725;28;20227;-51
2023/07/10 06:31:31;;;;;;;4.73;3.87;;;24.00;99.90;;;;;;4992863;28;20285;-51
2023/07/10 06:33:59;;;;;;;4.83;4.43;;;23.80;99.90;;;;;;4993254;28;20274;-51
2023/07/10 06:36:26;;;;;;;4.90;3.77;;;23.70;99.90;;;;;;4989006;28;20682;-51
2023/07/10 06:38:52;;;;;;;5.00;4.03;;;23.70;99.90;;;;;;4991302;28;20216;-51
2023/07/10 06:41:20;;;;;;;9.30;4.57;;;23.70;99.90;;;;;;4992693;28;20211;-51
2023/07/10 06:43:47;;;;;;;8.73;4.03;;;23.70;99.90;;;;;;4992320;28;20578;-51
2023/07/10 06:46:14;;;;;;;4.97;4.43;;;23.70;99.90;;;;;;4992843;28;20200;-51
2023/07/10 06:48:45;;;;;;;5.30;4.80;;;23.70;99.90;;;;;;4993084;28;20227;-51
2023/07/10 06:51:12;;;;;;;5.33;3.90;;;23.70;99.90;;;;;;4991790;28;20551;-51
2023/07/10 06:53:39;;;;;;;6.47;4.00;;;23.60;99.90;;;;;;4991561;28;20282;-51
2023/07/10 06:56:06;;;;;;;4.20;3.90;;;23.60;99.90;;;;;;4991632;28;20196;-51
2023/07/10 06:58:34;;;;;;;8.27;4.00;;;23.50;99.90;;;;;;4990875;28;20246;-51
2023/07/10 07:01:01;;;;;;;7.93;6.03;;;23.40;99.90;;;;;;4990327;28;20211;-51
2023/07/10 07:03:29;;;;;;;6.43;4.67;;;23.40;99.90;;;;;;4993124;28;20196;-51
2023/07/10 07:05:57;;;;;;;4.90;4.57;;;23.30;99.90;;;;;;4993183;28;20678;-51
2023/07/10 07:08:25;;;;;;;7.57;4.60;;;23.20;99.90;;;;;;4993134;28;20228;-52
2023/07/10 07:10:54;;;;;;;5.50;4.63;;;23.10;99.90;;;;;;4992804;28;20262;-50
2023/07/10 07:13:21;;;;;;;5.53;4.73;;;23.00;99.90;;;;;;4990464;28;20203;-51
2023/07/10 07:15:50;;;;;;;4.53;4.13;;;23.00;99.90;;;;;;4992879;28;20674;-51
2023/07/10 07:18:17;;;;;;;4.13;3.80;;;22.90;99.90;;;;;;4993161;28;20236;-51
2023/07/10 07:20:44;;;;;;;5.80;4.57;;;22.80;99.90;;;;;;4989772;28;21060;-51
2023/07/10 07:23:12;;;;;;;5.20;4.87;;;22.80;99.90;;;;;;4990087;28;20239;-51
2023/07/10 07:25:41;;;;;;;7.70;5.40;;;22.60;99.90;;;;;;4991953;28;20262;-59
2023/07/10 07:28:08;;;;;;;8.60;5.00;;;22.60;99.90;;;;;;4982917;28;20230;-52
2023/07/10 07:30:35;;;;;;;10.60;5.33;;;22.50;99.90;;;;;;4992895;28;20208;-52
2023/07/10 07:33:03;;;;;;;9.83;6.03;;;22.50;99.90;;;;;;4988584;28;20678;-52
2023/07/10 07:35:30;;;;;;;9.43;5.10;;;22.40;99.90;;;;;;4982155;28;20205;-52
2023/07/10 07:37:57;;;;;;;5.83;5.30;;;22.30;99.90;;;;;;4976666;28;20219;-52
2023/07/10 07:40:25;;;;;;;5.40;4.97;;;22.40;99.90;;;;;;4978900;28;20248;-52
2023/07/10 07:42:53;;;;;;;6.83;5.40;;;22.40;99.90;;;;;;4971968;28;20200;-52
2023/07/10 07:45:20;;;;;;;7.27;6.30;;;22.30;99.90;;;;;;4985918;28;20641;-52
2023/07/10 07:47:47;;;;;;;7.90;5.80;;;22.30;99.90;;;;;;4991156;28;20737;-52
2023/07/10 07:50:14;;;;;;;6.03;5.63;;;22.30;99.90;;;;;;4985289;28;20227;-52
2023/07/10 07:52:40;;;;;;;5.97;4.97;;;22.40;99.90;;;;;;4979541;28;20200;-52
2023/07/10 07:55:08;;;;;;;5.73;5.23;;;22.40;99.90;;;;;;4988094;28;20196;-52
2023/07/10 07:57:40;;;;;;;10.70;6.20;;;22.60;99.90;;;;;;4973264;28;20223;-52
2023/07/10 08:00:09;;;;;;;7.67;6.90;;;22.70;99.90;;;;;;4973189;28;20258;-52
2023/07/10 08:02:37;;;;;;;4.93;4.53;;;23.00;99.90;;;;;;4972994;28;20210;-52
2023/07/10 08:05:04;;;;;;;5.87;5.40;;;24.10;99.90;;;;;;4980154;28;20200;-52
2023/07/10 08:07:31;;;;;;;5.90;4.93;;;25.40;99.90;;;;;;4974808;28;20209;-52
2023/07/10 08:09:58;;;;;;;6.30;5.80;;;26.50;99.90;;;;;;4972901;28;20290;-52
2023/07/10 08:12:25;;;;;;;4.83;4.40;;;27.60;99.90;;;;;;4978556;28;20287;-52
2023/07/10 08:14:54;;;;;;;9.30;5.63;;;28.60;99.90;;;;;;4983670;28;20200;-52
2023/07/10 08:17:20;;;;;;;6.17;5.57;;;28.70;99.90;;;;;;4993658;28;20561;-52
2023/07/10 08:19:48;;;;;;;5.47;5.07;;;29.10;99.90;;;;;;4976663;28;20238;-52
2023/07/10 08:22:15;;;;;;;6.28;5.65;;;29.50;99.90;;;;;;4980753;28;20248;-52
2023/07/10 08:24:42;;;;;;;5.90;5.40;;;29.00;99.90;;;;;;4989542;28;20200;-52
2023/07/10 08:27:09;;;;;;;5.63;5.13;;;28.80;99.90;;;;;;4977643;28;20246;-52
2023/07/10 08:29:36;;;;;;;5.88;4.68;;;28.70;99.90;;;;;;4980001;28;20278;-52
2023/07/10 08:32:04;;;;;;;6.18;5.63;;;28.30;99.90;;;;;;4990099;28;20670;-52
2023/07/10 08:34:32;;;;;;;4.80;4.40;;;28.10;99.90;;;;;;4987374;28;20203;-52
2023/07/10 08:36:59;;;;;;;8.20;5.93;;;28.10;99.90;;;;;;4986948;28;20280;-52
2023/07/10 08:39:27;;;;;;;6.47;5.78;;;28.80;99.90;;;;;;4980252;28;20222;-52
2023/07/10 08:41:57;;;;;;;6.35;5.82;;;29.50;99.90;;;;;;4992209;28;20245;-52
2023/07/10 08:44:30;;;;;;;9.52;6.65;;;30.40;99.90;;;;;;4991865;28;20737;-52
2023/07/10 08:46:58;;;;;;;6.88;6.18;;;31.00;99.90;;;;;;4990860;28;20226;-52
2023/07/10 08:49:33;;;;;;;6.05;5.53;;;31.30;99.90;;;;;;4991317;28;20237;-53
2023/07/10 08:52:07;;;;;;;7.00;5.70;;;31.80;99.90;;;;;;4990634;28;20203;-53
2023/07/10 08:54:34;;;;;;;5.57;4.75;;;31.90;99.90;;;;;;4993922;28;20199;-53
2023/07/10 08:57:16;;;;;;;5.68;5.28;;;32.70;99.90;;;;;;4992656;28;20227;-53
2023/07/10 08:59:52;;;;;;;6.22;5.82;;;33.70;99.90;;;;;;4991867;28;20227;-53
2023/07/10 09:02:40;;;;;;;5.82;5.28;;;34.20;99.90;;;;;;4991990;28;20203;-53
2023/07/10 09:05:12;;;;;;;5.57;5.22;;;34.70;99.90;;;;;;4987843;28;20223;-53
2023/07/10 09:07:44;;;;;;;7.38;5.72;;;35.10;99.80;;;;;;4990875;28;20286;-53
2023/07/10 09:10:17;;;;;;;5.85;5.35;;;35.00;99.90;;;;;;4984048;28;20290;-53
2023/07/10 09:12:47;;;;;;;5.60;5.20;;;35.30;99.90;;;;;;4991758;28;20262;-53
2023/07/10 09:15:19;;;;;;;6.05;5.60;;;35.50;99.90;;;;;;4991933;28;20208;-53
2023/07/10 09:17:56;;;;;;;6.25;5.72;;;35.20;97.70;;;;;;4991783;28;20228;-53
2023/07/10 09:20:25;;;;;;;9.65;6.50;;;35.30;99.20;;;;;;4993510;28;20230;-53
2023/07/10 09:22:57;;;;;;;7.72;6.30;;;34.90;97.60;;;;;;4994638;28;20208;-53
2023/07/10 09:25:24;;;;;;;6.28;5.68;;;34.80;98.60;;;;;;4992412;28;20203;-53
2023/07/10 09:27:51;;;;;;;9.55;5.72;;;35.20;97.70;;;;;;4993246;28;20275;-53
2023/07/10 09:30:34;;;;;;;7.25;6.65;;;34.80;99.90;;;;;;4993770;28;20227;-53
2023/07/10 09:33:02;;;;;;;5.60;5.10;;;34.80;97.90;;;;;;4993715;28;20258;-58
2023/07/10 09:35:31;;;;;;;5.50;5.20;;;34.90;99.90;;;;;;4994045;28;20776;-57
2023/07/10 09:37:58;;;;;;;6.45;5.40;;;35.00;99.70;;;;;;4991415;28;20270;-56
2023/07/10 09:40:38;;;;;;;5.30;5.10;;;35.40;96.40;;;;;;4993338;28;20747;-60
2023/07/10 09:43:06;;;;;;;6.15;5.35;;;35.60;97.00;;;;;;4997068;28;20217;-59
2023/07/10 09:45:34;;;;;;;6.00;5.40;;;35.90;96.20;;;;;;5014234;28;20203;-60
2023/07/10 09:48:01;;;;;;;7.03;5.50;;;35.80;97.80;;;;;;5014122;28;20234;-60
2023/07/10 09:50:32;;;;;;;6.38;5.13;;;36.10;97.50;;;;;;5014267;28;20255;-60
2023/07/10 09:53:00;;;;;;;6.95;5.55;;;36.10;98.60;;;;;;5013799;28;20665;-60
2023/07/10 09:55:27;;;;;;;6.35;5.65;;;36.00;99.20;;;;;;5002385;28;20207;-61
2023/07/10 09:57:59;;;;;;;5.18;4.68;;;36.10;98.80;;;;;;4993809;28;20223;-60
2023/07/10 10:00:27;;;;;;;5.80;5.25;;;36.10;95.20;;;;;;4994343;28;20203;-60
2023/07/10 10:02:57;;;;;;;7.00;5.50;;;36.30;92.50;;;;;;4993384;28;20258;-59
2023/07/10 10:05:24;;;;;;;6.82;5.55;;;36.30;93.80;;;;;;4992150;28;20196;-59
2023/07/10 10:07:54;;;;;;;4.32;4.03;;;36.40;94.40;;;;;;4991293;28;20223;-61
2023/07/10 10:10:26;;;;;;;6.03;4.90;;;36.30;96.60;;;;;;4990688;28;20247;-62
2023/07/10 10:12:59;;;;;;;5.03;4.63;;;36.00;94.00;;;;;;4977523;28;20275;-61
2023/07/10 10:15:45;;;;;;;7.03;5.38;;;36.10;93.40;;;;;;4974258;28;20205;-53
2023/07/10 10:18:25;;;;;;;4.80;4.07;;;35.80;92.70;;;;;;4990080;28;20303;-62
2023/07/10 10:20:53;;;;;;;4.50;4.22;;;35.90;92.60;;;;;;4977810;28;20224;-59
2023/07/10 10:23:30;;;;;;;5.22;4.68;;;36.40;92.80;;;;;;4973568;28;20279;-60
2023/07/10 10:26:21;;;;;;;5.07;4.63;;;36.60;94.60;;;;;;4983714;28;20796;-64
2023/07/10 10:28:59;;;;;;;7.07;5.45;;;37.00;93.80;;;;;;4983465;28;20702;-53
2023/07/10 10:31:32;;;;;;;4.80;4.38;;;36.70;95.00;;;;;;4986913;28;20196;-53
2023/07/10 10:34:04;;;;;;;5.63;5.28;;;36.70;91.10;;;;;;4979605;28;20208;-53
2023/07/10 10:36:42;;;;;;;5.43;4.93;;;35.80;92.70;;;;;;4973709;28;21096;-53
2023/07/10 10:39:20;;;;;;;5.55;4.97;;;35.30;92.50;;;;;;4977428;28;20224;-53
2023/07/10 10:41:54;;;;;;;5.97;5.35;;;35.60;92.90;;;;;;4978371;28;20247;-53
2023/07/10 10:44:45;;;;;;;5.45;5.00;;;35.30;92.80;;;;;;4984034;28;20196;-53
2023/07/10 10:47:37;;;;;;;6.03;5.35;;;35.20;95.40;;;;;;4978797;28;20258;-59
2023/07/10 10:50:22;;;;;;;6.25;5.70;;;35.40;97.40;;;;;;4988042;28;20274;-59
2023/07/10 10:53:05;;;;;;;7.68;6.70;;;35.50;94.40;;;;;;4982871;28;20204;-59
2023/07/10 10:55:39;;;;;;;7.32;6.72;;;35.60;93.80;;;;;;4974221;28;20296;-61
2023/07/10 10:58:25;;;;;;;8.13;6.78;;;35.60;94.10;;;;;;4981582;28;20220;-58
2023/07/10 11:01:12;;;;;;;6.22;5.40;;;35.30;96.10;;;;;;4992108;28;20254;-57
2023/07/10 11:03:43;;;;;;;8.60;6.05;;;34.10;96.70;;;;;;4980019;28;20200;-59
2023/07/10 11:06:33;;;;;;;7.78;7.00;;;33.10;98.20;;;;;;4993221;28;20207;-57
2023/07/10 11:09:05;;;;;;;7.30;6.80;;;32.10;99.20;;;;;;4980350;28;20220;-62
2023/07/10 11:11:39;;;;;;;7.18;6.45;;;31.50;99.80;;;;;;4992279;28;20277;-58
2023/07/10 11:14:08;;;;;;;6.88;6.25;;;30.50;99.90;;;;;;4992921;28;20243;-60
2023/07/10 11:16:36;;;;;;;7.32;6.72;;;29.80;99.90;;;;;;4991179;28;20232;-60
2023/07/10 11:19:05;;;;;;;7.50;6.78;;;29.80;99.90;;;;;;4991855;28;20220;-59
2023/07/10 11:21:33;;;;;;;6.85;6.38;;;30.20;99.90;;;;;;4992643;28;20207;-58
2023/07/10 11:24:14;;;;;;;8.77;7.38;;;30.40;99.90;;;;;;4992494;28;20286;-61
2023/07/10 11:26:42;;;;;;;9.32;7.35;;;30.50;99.90;;;;;;4992967;28;20207;-62
2023/07/10 11:29:28;;;;;;;7.30;6.50;;;30.60;99.90;;;;;;4991900;28;20223;-62
2023/07/10 11:31:58;;;;;;;7.60;6.72;;;30.90;99.90;;;;;;4989118;28;20200;-60
2023/07/10 11:34:49;;;;;;;7.95;7.10;;;30.70;99.90;;;;;;4992554;28;20199;-62
2023/07/10 11:37:39;;;;;;;7.25;6.63;;;30.40;99.90;;;;;;4992455;28;20204;-61
2023/07/10 11:40:39;;;;;;;13.77;7.00;;;30.20;99.90;;;;;;4991397;28;20658;-61
2023/07/10 11:43:57;;;;;;;7.82;6.45;;;30.30;99.90;;;;;;4984168;28;20203;-60
2023/07/10 11:46:35;;;;;;;7.05;6.45;;;30.50;99.90;;;;;;4991584;28;22024;-59
2023/07/10 11:49:18;;;;;;;8.48;6.32;;;30.60;99.90;;;;;;5036196;22;20245;-70
2023/07/10 11:52:05;;;;;;;10.65;7.30;;;30.70;99.90;;;;;;5031437;28;20244;-69
2023/07/10 11:54:42;;;;;;;6.25;5.85;;;30.40;99.90;;;;;;5029049;28;20296;-70
2023/07/10 11:57:22;;;;;;;6.43;5.82;;;30.40;99.90;;;;;;5020362;28;20614;-66
2023/07/10 11:59:52;;;;;;;6.55;6.05;;;30.60;99.90;;;;;;5030292;28;20696;-69
2023/07/10 12:02:32;;;;;;;8.23;6.85;;;30.90;99.90;;;;;;5031079;28;20639;-69
2023/07/10 12:05:01;;;;;;;6.00;5.60;;;31.00;99.90;;;;;;5030669;28;20271;-69
2023/07/10 12:07:28;;;;;;;7.10;6.53;;;31.10;99.90;;;;;;5023076;28;20763;-72
2023/07/10 12:09:58;;;;;;;8.50;6.53;;;31.30;99.90;;;;;;5029109;28;20223;-70
2023/07/10 12:12:31;;;;;;;6.30;5.70;;;31.30;99.90;;;;;;5034373;28;20214;-77
2023/07/10 12:15:02;;;;;;;7.38;5.57;;;31.30;99.90;;;;;;5024099;28;20665;-74
2023/07/10 12:17:32;;;;;;;6.85;6.35;;;31.10;99.90;;;;;;5028650;28;20198;-74
2023/07/10 12:20:01;;;;;;;7.35;6.18;;;30.70;99.90;;;;;;5028225;28;20214;-59
2023/07/10 12:22:39;;;;;;;7.45;6.85;;;30.60;99.90;;;;;;5026856;28;20206;-60
2023/07/10 12:25:12;;;;;;;6.30;5.80;;;30.70;99.90;;;;;;5028953;28;20222;-58
2023/07/10 12:27:40;;;;;;;9.70;7.00;;;30.90;99.90;;;;;;5028249;28;20195;-59
2023/07/10 12:30:16;;;;;;;14.13;7.50;;;30.80;99.90;;;;;;5014082;28;20214;-59
2023/07/10 12:32:44;;;;;;;7.13;6.38;;;30.70;99.90;;;;;;5022379;28;20206;-59
2023/07/10 12:35:17;;;;;;;7.13;6.53;;;30.80;99.90;;;;;;5022357;28;20218;-59
2023/07/10 12:37:48;;;;;;;10.13;7.72;;;30.70;99.90;;;;;;5025683;28;20261;-59
2023/07/10 12:40:17;;;;;;;7.72;7.00;;;30.60;99.90;;;;;;5021507;28;20200;-59
2023/07/10 12:42:45;;;;;;;7.88;7.10;;;30.40;99.90;;;;;;5024221;28;20743;-60
2023/07/10 12:45:20;;;;;;;6.95;6.35;;;30.30;99.90;;;;;;5027924;28;20214;-59
2023/07/10 12:47:55;;;;;;;7.63;6.90;;;30.40;99.90;;;;;;5030988;28;20260;-58
2023/07/10 12:50:34;;;;;;;7.28;6.72;;;30.50;99.90;;;;;;5029306;28;20218;-60
2023/07/10 12:53:06;;;;;;;7.75;6.93;;;30.50;99.90;;;;;;5029254;28;20190;-58
2023/07/10 12:55:33;;;;;;;7.53;6.82;;;30.50;99.90;;;;;;5032621;28;20575;-58
2023/07/10 12:58:03;;;;;;;9.60;6.97;;;30.50;99.90;;;;;;5028870;28;20259;-59
2023/07/10 13:00:47;;;;;;;8.52;6.95;;;30.60;99.90;;;;;;5033050;28;20201;-59